Time;durP1;ratioP1;P1;durP2;ratioP2;P2;SDS_P1;SDS_P2;PMS_P1;PMS_P2;Temp;Humidity;BMP_temperature;BMP_pressure;BME280_temperature;BME280_humidity;BME280_pressure;Samples;Min_cycle;Max_cycle;Signal;HPM_P1;HPM_P2
2021/07/11 00:01:47;;;;;;;19.98;17.17;;;17.40;99.90;;;;;;5114846;28;20130;-69
2021/07/11 00:04:13;;;;;;;27.63;19.42;;;17.40;99.90;;;;;;5115097;28;20131;-68
2021/07/11 00:06:38;;;;;;;26.25;19.50;;;17.40;99.90;;;;;;5116194;28;20076;-68
2021/07/11 00:09:05;;;;;;;26.05;20.77;;;17.50;99.90;;;;;;5116430;28;20031;-68
2021/07/11 00:11:31;;;;;;;26.55;19.23;;;17.50;99.90;;;;;;5116143;28;20024;-69
2021/07/11 00:14:00;;;;;;;32.55;21.27;;;17.50;99.90;;;;;;5116070;27;20028;-69
2021/07/11 00:16:27;;;;;;;32.35;22.63;;;17.50;99.90;;;;;;5115332;28;20047;-69
2021/07/11 00:18:53;;;;;;;43.33;26.00;;;17.50;99.90;;;;;;5115995;28;20400;-69
2021/07/11 00:21:18;;;;;;;39.22;26.27;;;17.50;99.90;;;;;;5115785;28;20030;-68
2021/07/11 00:23:44;;;;;;;45.42;29.88;;;17.40;99.90;;;;;;5097289;28;20027;-68
2021/07/11 00:26:09;;;;;;;50.85;32.13;;;17.30;99.90;;;;;;5114256;28;20020;-68
2021/07/11 00:28:35;;;;;;;51.90;33.72;;;17.30;99.90;;;;;;5115737;28;20440;-69
2021/07/11 00:31:01;;;;;;;53.53;35.95;;;17.20;99.90;;;;;;5116008;28;20338;-68
2021/07/11 00:33:26;;;;;;;50.15;36.13;;;17.10;99.90;;;;;;5115916;28;20357;-68
2021/07/11 00:35:52;;;;;;;61.72;38.65;;;17.10;99.90;;;;;;5114764;28;20112;-69
2021/07/11 00:38:17;;;;;;;58.30;42.00;;;17.00;99.90;;;;;;5115845;28;20047;-68
2021/07/11 00:40:43;;;;;;;61.15;41.20;;;17.00;99.90;;;;;;5115715;28;20098;-68
2021/07/11 00:43:09;;;;;;;52.47;40.30;;;17.00;99.90;;;;;;5114299;28;20023;-68
2021/07/11 00:45:35;;;;;;;54.83;40.35;;;17.20;99.90;;;;;;5114541;28;20022;-68
2021/07/11 00:48:00;;;;;;;61.25;41.83;;;17.30;99.90;;;;;;5113892;28;20024;-68
2021/07/11 00:50:26;;;;;;;58.75;43.08;;;17.30;99.90;;;;;;5114468;28;20047;-69
2021/07/11 00:52:52;;;;;;;64.18;44.90;;;17.30;99.90;;;;;;5115301;28;20051;-68
2021/07/11 00:55:17;;;;;;;67.45;45.72;;;17.30;99.90;;;;;;5115493;28;20461;-68
2021/07/11 00:57:43;;;;;;;70.57;48.70;;;17.30;99.90;;;;;;5115510;28;20028;-68
2021/07/11 01:00:11;;;;;;;78.38;51.17;;;17.40;99.90;;;;;;5115451;28;20023;-68
2021/07/11 01:03:01;;;;;;;74.78;51.50;;;17.40;99.90;;;;;;5114676;28;20485;-68
2021/07/11 01:05:28;;;;;;;76.60;53.17;;;17.40;99.90;;;;;;5114782;28;20027;-68
2021/07/11 01:10:43;;;;;;;76.57;52.50;;;17.40;99.90;;;;;;5071612;28;20353;-68
2021/07/11 01:13:12;;;;;;;78.13;54.83;;;17.30;99.90;;;;;;5071324;28;20028;-78
2021/07/11 01:15:40;;;;;;;83.15;55.47;;;17.30;99.90;;;;;;5070984;28;20107;-69
2021/07/11 01:18:08;;;;;;;87.32;58.53;;;17.30;99.90;;;;;;5070922;28;20032;-69
2021/07/11 01:20:59;;;;;;;90.82;59.08;;;17.30;99.90;;;;;;5071188;28;20025;-69
2021/07/11 01:23:44;;;;;;;89.53;57.25;;;17.20;99.90;;;;;;5071156;28;20029;-69
2021/07/11 01:26:12;;;;;;;93.70;58.38;;;17.20;99.90;;;;;;5071063;28;20025;-69
2021/07/11 01:28:39;;;;;;;85.75;58.47;;;17.20;99.90;;;;;;5070975;28;20466;-69
2021/07/11 01:31:05;;;;;;;84.70;55.70;;;17.30;99.90;;;;;;5069838;28;20051;-69
2021/07/11 01:33:33;;;;;;;80.40;53.20;;;17.20;99.90;;;;;;5070959;28;20437;-69
2021/07/11 01:36:00;;;;;;;80.25;54.17;;;17.20;99.90;;;;;;5070900;28;20021;-69
2021/07/11 01:38:27;;;;;;;82.38;55.00;;;17.30;99.90;;;;;;5070558;28;20029;-69
2021/07/11 01:40:53;;;;;;;73.32;52.35;;;17.30;99.90;;;;;;5069343;28;20032;-69
2021/07/11 01:43:21;;;;;;;75.60;52.50;;;17.20;99.90;;;;;;5070476;28;20059;-69
2021/07/11 01:45:49;;;;;;;80.72;53.65;;;17.30;99.90;;;;;;5070675;28;20029;-69
2021/07/11 01:48:16;;;;;;;75.05;51.83;;;17.40;99.90;;;;;;5070567;28;20451;-69
2021/07/11 01:50:42;;;;;;;76.32;51.63;;;17.40;99.90;;;;;;5069180;28;20451;-69
2021/07/11 01:53:08;;;;;;;75.80;52.40;;;17.30;99.90;;;;;;5068690;28;20032;-69
2021/07/11 01:55:34;;;;;;;75.70;51.72;;;17.20;99.90;;;;;;5070453;28;20021;-69
2021/07/11 01:57:59;;;;;;;75.03;49.53;;;17.30;99.90;;;;;;5070144;28;20102;-69
2021/07/11 02:00:25;;;;;;;76.03;51.33;;;17.20;99.90;;;;;;5070384;28;20037;-69
2021/07/11 02:02:51;;;;;;;77.90;53.75;;;17.20;99.90;;;;;;5070070;28;20029;-69
2021/07/11 02:05:18;;;;;;;86.05;54.17;;;17.20;99.90;;;;;;5070244;28;20024;-69
2021/07/11 02:07:44;;;;;;;93.22;57.35;;;17.20;99.90;;;;;;5069062;28;20045;-69
2021/07/11 02:10:12;;;;;;;83.65;54.75;;;17.10;99.90;;;;;;5069358;28;20423;-68
2021/07/11 02:12:47;;;;;;;80.63;53.35;;;17.10;99.90;;;;;;5070098;28;20031;-69
2021/07/11 02:15:13;;;;;;;82.47;54.40;;;17.10;99.90;;;;;;5070021;28;20021;-69
2021/07/11 02:17:44;;;;;;;84.32;54.28;;;17.10;99.90;;;;;;5069406;28;20024;-69
2021/07/11 02:20:10;;;;;;;83.72;54.72;;;17.10;99.90;;;;;;5066374;28;20025;-69
2021/07/11 02:22:41;;;;;;;80.40;52.85;;;17.10;99.90;;;;;;5056471;28;20028;-69
2021/07/11 02:25:07;;;;;;;74.57;50.75;;;17.20;99.90;;;;;;5056399;28;20367;-69
2021/07/11 02:27:33;;;;;;;79.82;52.13;;;17.20;99.90;;;;;;5056684;28;20025;-69
2021/07/11 02:30:06;;;;;;;75.65;51.85;;;17.20;99.90;;;;;;5056248;28;20082;-69
2021/07/11 02:32:31;;;;;;;74.93;50.33;;;17.20;99.90;;;;;;5056598;28;20021;-69
2021/07/11 02:34:59;;;;;;;81.43;52.30;;;17.20;99.90;;;;;;5056511;28;20055;-69
2021/07/11 02:37:25;;;;;;;81.47;53.45;;;17.20;99.90;;;;;;5056478;28;20072;-69
2021/07/11 02:39:53;;;;;;;83.00;54.65;;;17.20;99.90;;;;;;5056465;28;20114;-69
2021/07/11 02:42:22;;;;;;;82.38;52.67;;;17.20;99.90;;;;;;5056361;28;20068;-69
2021/07/11 02:44:52;;;;;;;82.97;53.28;;;17.20;99.90;;;;;;5056320;28;20025;-69
2021/07/11 02:47:24;;;;;;;82.32;52.35;;;17.20;99.90;;;;;;5056291;28;20025;-69
2021/07/11 02:49:52;;;;;;;86.70;56.88;;;17.10;99.90;;;;;;5056175;28;20108;-69
2021/07/11 02:52:21;;;;;;;84.32;53.83;;;17.20;99.90;;;;;;5056183;28;20383;-68
2021/07/11 02:54:55;;;;;;;92.72;55.10;;;17.10;99.90;;;;;;5054301;28;20076;-68
2021/07/11 02:57:25;;;;;;;95.20;57.25;;;17.20;99.90;;;;;;5056051;28;20025;-69
2021/07/11 02:59:53;;;;;;;96.88;57.83;;;17.20;99.90;;;;;;5056005;28;20085;-68
2021/07/11 03:02:20;;;;;;;97.47;58.60;;;17.20;99.90;;;;;;5055977;28;20025;-69
2021/07/11 03:04:50;;;;;;;100.68;59.88;;;17.20;99.90;;;;;;5054166;28;20383;-69
2021/07/11 03:07:17;;;;;;;97.20;60.58;;;17.20;99.90;;;;;;5055837;28;20079;-69
2021/07/11 03:09:42;;;;;;;103.80;61.65;;;17.20;99.90;;;;;;5055230;28;20045;-69
2021/07/11 03:12:09;;;;;;;103.75;62.53;;;17.20;99.90;;;;;;5055236;28;20029;-69
2021/07/11 03:14:37;;;;;;;106.72;62.05;;;17.10;99.90;;;;;;5055769;28;20108;-69
2021/07/11 03:17:02;;;;;;;106.60;63.58;;;17.10;99.90;;;;;;5054099;28;20450;-69
2021/07/11 03:19:35;;;;;;;110.63;63.20;;;17.10;99.90;;;;;;5054211;28;20083;-69
2021/07/11 03:22:01;;;;;;;105.68;62.92;;;17.10;99.90;;;;;;5055706;28;20455;-69
2021/07/11 03:24:29;;;;;;;107.25;61.80;;;17.10;99.90;;;;;;5054409;28;20170;-69
2021/07/11 03:26:56;;;;;;;108.25;64.00;;;17.10;99.90;;;;;;5055254;28;20028;-69
2021/07/11 03:29:33;;;;;;;113.72;63.72;;;17.10;99.90;;;;;;5055420;28;20104;-69
2021/07/11 03:31:59;;;;;;;116.82;64.75;;;17.10;99.90;;;;;;5053160;28;20017;-69
2021/07/11 03:34:28;;;;;;;118.70;63.17;;;17.10;99.90;;;;;;5055360;28;20044;-69
2021/07/11 03:36:57;;;;;;;115.82;62.22;;;17.10;99.90;;;;;;5055054;28;20053;-68
2021/07/11 03:39:25;;;;;;;126.97;64.10;;;17.20;99.90;;;;;;5055301;28;20382;-69
2021/07/11 03:41:53;;;;;;;114.32;63.78;;;17.20;99.90;;;;;;5053943;28;20021;-69
2021/07/11 03:44:20;;;;;;;114.65;61.55;;;17.20;99.90;;;;;;5054005;28;20036;-69
2021/07/11 03:46:49;;;;;;;112.38;60.92;;;17.20;99.90;;;;;;5055152;28;20021;-69
2021/07/11 03:49:16;;;;;;;122.22;63.25;;;17.20;99.90;;;;;;5053718;28;20440;-69
2021/07/11 03:51:45;;;;;;;119.45;61.38;;;17.20;99.90;;;;;;5055044;28;20025;-69
2021/07/11 03:54:12;;;;;;;121.25;63.25;;;17.20;99.90;;;;;;5054988;28;20021;-69
2021/07/11 03:56:38;;;;;;;113.32;60.67;;;17.20;99.90;;;;;;5054668;28;20048;-68
2021/07/11 03:59:08;;;;;;;122.72;63.75;;;17.20;99.90;;;;;;5053446;28;20029;-69
2021/07/11 04:01:36;;;;;;;114.82;62.58;;;17.20;99.90;;;;;;5054834;28;20021;-69
2021/07/11 04:04:05;;;;;;;117.53;62.58;;;17.20;99.90;;;;;;5053014;28;20470;-68
2021/07/11 04:06:32;;;;;;;118.53;61.90;;;17.10;99.90;;;;;;5052958;28;20033;-68
2021/07/11 04:09:01;;;;;;;116.32;60.08;;;17.10;99.90;;;;;;5052929;28;20048;-69
2021/07/11 04:11:27;;;;;;;115.68;58.72;;;17.10;99.90;;;;;;5054678;28;20025;-69
2021/07/11 04:13:53;;;;;;;114.18;58.63;;;17.10;99.90;;;;;;5054686;28;20021;-68
2021/07/11 04:16:23;;;;;;;110.03;55.45;;;17.00;99.90;;;;;;5053152;28;20352;-68
2021/07/11 04:18:50;;;;;;;105.03;54.13;;;17.00;99.90;;;;;;5054615;28;20021;-69
2021/07/11 04:21:17;;;;;;;103.13;56.85;;;17.00;99.90;;;;;;5054528;28;20025;-69
2021/07/11 04:23:44;;;;;;;104.30;54.75;;;16.90;99.90;;;;;;5054197;28;20078;-69
2021/07/11 04:26:11;;;;;;;102.35;55.95;;;16.90;99.90;;;;;;5054400;28;20074;-69
2021/07/11 04:28:42;;;;;;;107.90;57.25;;;16.90;99.90;;;;;;5053168;28;20032;-69
2021/07/11 04:31:08;;;;;;;108.07;56.40;;;16.90;99.90;;;;;;5054090;28;20092;-67
2021/07/11 04:33:34;;;;;;;104.70;57.60;;;16.90;99.90;;;;;;5054329;28;20020;-69
2021/07/11 04:36:04;;;;;;;97.72;53.45;;;16.90;99.90;;;;;;5054294;28;20021;-69
2021/07/11 04:38:29;;;;;;;99.30;54.38;;;16.90;99.90;;;;;;5053086;28;20033;-69
2021/07/11 04:40:55;;;;;;;97.70;53.03;;;16.90;99.90;;;;;;5053951;28;20028;-69
2021/07/11 04:43:21;;;;;;;100.80;53.70;;;16.90;99.90;;;;;;5053403;28;20154;-66
2021/07/11 04:45:47;;;;;;;101.97;53.63;;;16.90;99.90;;;;;;5052780;28;20099;-68
2021/07/11 04:48:14;;;;;;;86.05;49.88;;;16.90;99.90;;;;;;5053745;28;20075;-68
2021/07/11 04:50:43;;;;;;;81.78;45.83;;;16.90;99.90;;;;;;5053523;28;20051;-69
2021/07/11 04:53:09;;;;;;;74.97;43.47;;;17.00;99.90;;;;;;5053988;28;20017;-69
2021/07/11 04:55:34;;;;;;;72.47;43.17;;;16.90;99.90;;;;;;5053464;28;20044;-69
2021/07/11 04:58:00;;;;;;;72.72;41.35;;;16.90;99.90;;;;;;5053695;28;20056;-69
2021/07/11 05:00:25;;;;;;;67.05;38.63;;;17.00;99.90;;;;;;5053904;28;20585;-69
2021/07/11 05:02:51;;;;;;;59.95;36.53;;;16.90;99.90;;;;;;5052105;28;20040;-69
2021/07/11 05:05:16;;;;;;;58.47;36.05;;;16.90;99.90;;;;;;5053323;28;20040;-69
2021/07/11 05:07:42;;;;;;;59.75;34.33;;;17.00;99.90;;;;;;5053590;28;20032;-69
2021/07/11 05:10:09;;;;;;;50.92;31.88;;;16.90;99.90;;;;;;5053133;28;20075;-69
2021/07/11 05:12:36;;;;;;;46.47;29.85;;;16.90;99.90;;;;;;5052409;28;20021;-69
2021/07/11 05:15:04;;;;;;;47.28;28.73;;;16.90;99.90;;;;;;5053556;28;20100;-69
2021/07/11 05:17:29;;;;;;;47.88;29.30;;;16.80;99.90;;;;;;5053807;28;20017;-69
2021/07/11 05:19:55;;;;;;;41.20;26.30;;;16.80;99.90;;;;;;5053793;28;20033;-69
2021/07/11 05:22:20;;;;;;;50.63;28.20;;;16.90;99.90;;;;;;5052019;28;20470;-69
2021/07/11 05:24:46;;;;;;;44.33;28.70;;;16.80;99.90;;;;;;5053701;28;20029;-69
2021/07/11 05:27:12;;;;;;;45.88;27.83;;;16.80;99.90;;;;;;5053413;28;20036;-68
2021/07/11 05:29:37;;;;;;;43.88;26.48;;;16.80;99.90;;;;;;5052415;28;20460;-68
2021/07/11 05:32:04;;;;;;;47.58;28.25;;;16.80;99.90;;;;;;5053647;28;20074;-69
2021/07/11 05:34:29;;;;;;;43.60;27.17;;;16.90;99.90;;;;;;5053540;28;20413;-68
2021/07/11 05:36:55;;;;;;;47.75;28.00;;;16.90;99.90;;;;;;5053926;28;20160;-69
2021/07/11 05:39:21;;;;;;;48.88;29.42;;;16.80;99.90;;;;;;5053603;28;20029;-69
2021/07/11 05:41:46;;;;;;;49.35;29.20;;;16.90;99.90;;;;;;5053531;28;20383;-69
2021/07/11 05:44:12;;;;;;;54.35;29.23;;;16.80;99.90;;;;;;5053538;28;20062;-69
2021/07/11 05:46:38;;;;;;;51.33;30.02;;;16.90;99.90;;;;;;5053239;28;20025;-69
2021/07/11 05:49:04;;;;;;;51.08;30.48;;;16.90;99.90;;;;;;5053481;28;20471;-69
2021/07/11 05:51:30;;;;;;;55.05;30.67;;;17.00;99.90;;;;;;5053463;28;20032;-69
2021/07/11 05:53:55;;;;;;;57.75;33.58;;;16.90;99.90;;;;;;5053434;28;20490;-69
2021/07/11 05:56:21;;;;;;;57.67;32.72;;;16.90;99.90;;;;;;5054938;28;20025;-69
2021/07/11 05:58:47;;;;;;;61.15;34.00;;;17.00;99.90;;;;;;5056048;28;20036;-69
2021/07/11 06:01:12;;;;;;;55.70;33.63;;;17.00;99.90;;;;;;5056890;28;20493;-69
2021/07/11 06:03:38;;;;;;;57.58;32.08;;;17.00;99.90;;;;;;5055918;28;20025;-69
2021/07/11 06:06:04;;;;;;;51.05;31.42;;;17.00;99.90;;;;;;5055495;28;20417;-69
2021/07/11 06:08:30;;;;;;;51.80;32.58;;;17.00;99.90;;;;;;5056394;28;20041;-69
2021/07/11 06:10:55;;;;;;;49.53;31.38;;;16.90;99.90;;;;;;5056756;28;20032;-69
2021/07/11 06:13:22;;;;;;;59.40;33.92;;;17.00;99.90;;;;;;5056983;28;20485;-68
2021/07/11 06:15:49;;;;;;;56.97;32.75;;;17.10;99.90;;;;;;5056930;28;20086;-68
2021/07/11 06:18:14;;;;;;;55.03;33.20;;;17.10;99.90;;;;;;5055630;28;20463;-69
2021/07/11 06:20:40;;;;;;;55.47;32.08;;;17.10;99.90;;;;;;5056553;28;20055;-69
2021/07/11 06:23:06;;;;;;;50.05;31.48;;;17.10;99.90;;;;;;5056769;28;20381;-69
2021/07/11 06:25:31;;;;;;;57.00;34.17;;;17.10;99.90;;;;;;5056691;28;20079;-69
2021/07/11 06:27:57;;;;;;;51.58;31.80;;;17.10;99.90;;;;;;5056658;28;20028;-69
2021/07/11 06:30:23;;;;;;;56.97;33.40;;;17.10;99.90;;;;;;5056017;28;20037;-69
2021/07/11 06:32:49;;;;;;;53.97;32.67;;;17.10;99.90;;;;;;5056312;28;20032;-69
2021/07/11 06:35:18;;;;;;;55.85;32.53;;;17.20;99.90;;;;;;5055992;28;20021;-69
2021/07/11 06:37:45;;;;;;;53.60;31.73;;;17.20;99.90;;;;;;5054968;28;20425;-69
2021/07/11 06:40:12;;;;;;;51.50;30.85;;;17.20;99.90;;;;;;5055012;28;20112;-69
2021/07/11 06:42:38;;;;;;;49.65;30.25;;;17.20;99.90;;;;;;5055232;28;20036;-69
2021/07/11 06:45:05;;;;;;;43.30;27.25;;;17.20;99.90;;;;;;5054889;28;20032;-69
2021/07/11 06:47:30;;;;;;;50.42;29.92;;;17.20;99.90;;;;;;5056033;28;20021;-69
2021/07/11 06:49:56;;;;;;;54.05;31.15;;;17.20;99.90;;;;;;5056213;28;20044;-69
2021/07/11 06:52:21;;;;;;;54.15;31.65;;;17.20;99.90;;;;;;5056236;28;20404;-69
2021/07/11 06:54:51;;;;;;;52.03;30.08;;;17.20;99.90;;;;;;5056158;28;20050;-69
2021/07/11 06:57:18;;;;;;;53.17;30.25;;;17.20;99.90;;;;;;5055516;28;20037;-69
2021/07/11 06:59:44;;;;;;;51.55;31.00;;;17.20;99.90;;;;;;5055529;28;20016;-70
2021/07/11 07:02:10;;;;;;;52.85;32.05;;;17.20;99.90;;;;;;5054835;28;20427;-69
2021/07/11 07:04:35;;;;;;;54.83;31.55;;;17.20;99.90;;;;;;5054830;28;20036;-69
2021/07/11 07:07:01;;;;;;;58.88;32.80;;;17.20;99.90;;;;;;5055517;28;20375;-69
2021/07/11 07:09:27;;;;;;;57.75;31.85;;;17.20;99.90;;;;;;5055198;28;20087;-69
2021/07/11 07:11:52;;;;;;;50.10;30.10;;;17.30;99.90;;;;;;5055854;28;20458;-69
2021/07/11 07:14:18;;;;;;;48.95;29.40;;;17.30;99.90;;;;;;5055803;28;20095;-69
2021/07/11 07:16:43;;;;;;;50.90;29.75;;;17.30;99.90;;;;;;5054327;28;20036;-69
2021/07/11 07:19:09;;;;;;;53.10;30.27;;;17.30;99.90;;;;;;5037290;28;20033;-69
2021/07/11 07:21:34;;;;;;;52.55;30.85;;;17.30;99.90;;;;;;5055659;28;20037;-69
2021/07/11 07:24:00;;;;;;;57.17;32.28;;;17.30;99.90;;;;;;5055626;28;20028;-69
2021/07/11 07:26:25;;;;;;;53.40;32.03;;;17.30;99.90;;;;;;5055318;28;20126;-69
2021/07/11 07:28:51;;;;;;;53.95;31.05;;;17.50;99.90;;;;;;5054208;28;20507;-69
2021/07/11 07:31:16;;;;;;;54.10;31.00;;;17.60;99.90;;;;;;5055172;28;20032;-69
2021/07/11 07:33:42;;;;;;;51.08;30.63;;;17.50;99.90;;;;;;5055145;28;20039;-69
2021/07/11 07:36:07;;;;;;;53.38;31.38;;;17.50;99.90;;;;;;5053511;28;20025;-69
2021/07/11 07:38:35;;;;;;;55.35;32.40;;;17.50;99.90;;;;;;5054154;28;20100;-69
2021/07/11 07:41:01;;;;;;;59.08;32.95;;;17.50;99.90;;;;;;5054253;28;20128;-69
2021/07/11 07:43:26;;;;;;;55.55;31.50;;;17.60;99.90;;;;;;5055205;28;20095;-69
2021/07/11 07:45:52;;;;;;;51.35;30.95;;;17.70;99.90;;;;;;5036766;28;20098;-69
2021/07/11 07:48:17;;;;;;;50.83;30.45;;;17.80;99.90;;;;;;5055128;28;20060;-69
2021/07/11 07:50:43;;;;;;;49.20;31.02;;;17.90;99.90;;;;;;5055001;28;20036;-70
2021/07/11 07:53:08;;;;;;;62.08;36.42;;;18.10;99.90;;;;;;5054735;28;20025;-69
2021/07/11 07:55:34;;;;;;;56.70;34.28;;;18.20;99.90;;;;;;5055004;28;20025;-69
2021/07/11 07:58:01;;;;;;;54.38;33.20;;;18.40;99.90;;;;;;5054946;28;20103;-69
2021/07/11 08:00:27;;;;;;;51.97;34.58;;;18.50;99.90;;;;;;5054620;28;20134;-69
2021/07/11 08:02:53;;;;;;;58.97;35.65;;;18.60;99.90;;;;;;5054915;28;20032;-69
2021/07/11 08:05:19;;;;;;;54.38;34.42;;;18.50;99.90;;;;;;5053708;28;20382;-69
2021/07/11 08:07:45;;;;;;;52.38;34.00;;;18.50;99.90;;;;;;5054795;28;20021;-69
2021/07/11 08:10:15;;;;;;;51.70;34.60;;;18.50;99.90;;;;;;5053905;28;20048;-69
2021/07/11 08:12:41;;;;;;;58.35;37.67;;;18.50;99.90;;;;;;5054367;28;20021;-69
2021/07/11 08:15:08;;;;;;;52.88;34.88;;;18.60;99.90;;;;;;5054276;28;20056;-69
2021/07/11 08:17:34;;;;;;;57.45;37.10;;;18.60;99.90;;;;;;5054536;28;20416;-69
2021/07/11 08:20:02;;;;;;;55.63;36.78;;;18.70;99.90;;;;;;5054087;28;20021;-69
2021/07/11 08:22:28;;;;;;;59.10;37.67;;;18.60;99.90;;;;;;5054494;28;20163;-69
2021/07/11 08:24:53;;;;;;;57.22;39.10;;;18.70;99.90;;;;;;5053351;28;20370;-69
2021/07/11 08:27:19;;;;;;;58.35;40.78;;;18.80;99.90;;;;;;5053006;28;20462;-70
2021/07/11 08:29:50;;;;;;;64.93;41.63;;;18.90;99.90;;;;;;5052528;28;20032;-69
2021/07/11 08:32:16;;;;;;;52.88;37.28;;;19.20;99.90;;;;;;5053419;28;20370;-69
2021/07/11 08:34:42;;;;;;;54.97;38.35;;;19.40;99.90;;;;;;5052891;28;20103;-69
2021/07/11 08:37:07;;;;;;;49.35;36.50;;;19.40;99.90;;;;;;5054253;28;20458;-69
2021/07/11 08:39:33;;;;;;;52.75;36.80;;;19.50;99.90;;;;;;5054257;28;20028;-69
2021/07/11 08:41:59;;;;;;;53.30;37.72;;;19.70;99.90;;;;;;5054268;28;20482;-69
2021/07/11 08:44:25;;;;;;;53.83;38.95;;;19.90;99.90;;;;;;5054146;28;20059;-69
2021/07/11 08:46:51;;;;;;;50.88;37.53;;;19.80;99.90;;;;;;5053857;28;20040;-69
2021/07/11 08:49:18;;;;;;;52.47;37.38;;;19.90;99.90;;;;;;5053508;28;20025;-69
2021/07/11 08:51:44;;;;;;;49.88;36.50;;;20.20;99.90;;;;;;5053760;28;20042;-69
2021/07/11 08:54:11;;;;;;;44.85;35.28;;;20.40;99.90;;;;;;5053420;28;20013;-69
2021/07/11 08:56:37;;;;;;;47.80;36.50;;;20.50;99.90;;;;;;5052596;28;20441;-70
2021/07/11 08:59:03;;;;;;;46.05;34.63;;;20.50;99.90;;;;;;5053953;28;20467;-69
2021/07/11 09:01:28;;;;;;;45.78;34.55;;;20.70;99.90;;;;;;5052209;28;20028;-69
2021/07/11 09:04:11;;;;;;;43.78;34.28;;;20.90;99.90;;;;;;5053699;28;20082;-69
2021/07/11 09:06:45;;;;;;;40.50;33.00;;;21.00;99.90;;;;;;5053860;28;20040;-69
2021/07/11 09:09:14;;;;;;;42.78;33.03;;;21.10;99.90;;;;;;5053199;28;20398;-69
2021/07/11 09:11:48;;;;;;;43.28;30.73;;;21.00;99.90;;;;;;5053841;28;20035;-69
2021/07/11 09:14:17;;;;;;;39.67;31.10;;;21.00;99.90;;;;;;5053878;28;20028;-70
2021/07/11 09:16:44;;;;;;;38.65;31.40;;;21.10;99.90;;;;;;5052670;28;20018;-69
2021/07/11 09:19:34;;;;;;;39.22;29.35;;;21.30;99.90;;;;;;5053757;28;20033;-69
2021/07/11 09:22:05;;;;;;;34.53;28.42;;;21.30;99.90;;;;;;5053133;28;20025;-70
2021/07/11 09:24:33;;;;;;;35.08;25.98;;;21.50;99.90;;;;;;5053686;28;20055;-70
2021/07/11 09:29:44;;;;;;;34.78;27.48;;;21.50;99.90;;;;;;5112209;27;20433;-69
2021/07/11 09:32:22;;;;;;;32.85;26.85;;;21.30;99.90;;;;;;5111965;28;20077;-69
2021/07/11 09:34:48;;;;;;;34.40;26.35;;;21.90;99.90;;;;;;5111852;28;20346;-69
2021/07/11 09:37:16;;;;;;;29.98;24.63;;;22.20;99.90;;;;;;5111562;28;20019;-70
2021/07/11 09:39:48;;;;;;;26.45;21.58;;;22.00;99.90;;;;;;5111759;28;20026;-69
2021/07/11 09:42:31;;;;;;;26.50;21.05;;;22.10;99.90;;;;;;5111167;28;20529;-69
2021/07/11 09:44:59;;;;;;;27.38;22.02;;;21.80;99.90;;;;;;5111710;28;20350;-69
2021/07/11 09:47:27;;;;;;;24.20;20.25;;;21.90;99.90;;;;;;5111615;28;20028;-69
2021/07/11 09:50:19;;;;;;;24.42;19.52;;;23.30;99.90;;;;;;5110307;28;20411;-70
2021/07/11 09:52:46;;;;;;;21.20;17.52;;;24.10;99.90;;;;;;5110355;28;20078;-69
2021/07/11 09:55:18;;;;;;;21.98;17.08;;;23.30;99.90;;;;;;5111277;28;20065;-69
2021/07/11 09:57:46;;;;;;;19.23;16.95;;;23.00;99.90;;;;;;5110054;28;20020;-69
2021/07/11 10:00:19;;;;;;;17.50;15.73;;;23.10;99.90;;;;;;5109972;28;20065;-70
2021/07/11 10:02:47;;;;;;;18.33;14.73;;;23.00;99.90;;;;;;5111024;28;20043;-70
2021/07/11 10:05:15;;;;;;;15.35;13.18;;;23.20;99.90;;;;;;5111253;28;20050;-70
2021/07/11 10:07:41;;;;;;;15.93;12.23;;;24.40;99.90;;;;;;5110904;28;20461;-70
2021/07/11 10:10:09;;;;;;;10.48;9.27;;;25.10;99.90;;;;;;5109409;28;20073;-69
2021/07/11 10:12:36;;;;;;;12.85;10.40;;;25.20;99.90;;;;;;5111097;28;20052;-69
2021/07/11 10:15:05;;;;;;;14.35;12.88;;;24.00;99.90;;;;;;5111131;28;20073;-69
2021/07/11 10:17:32;;;;;;;15.75;12.57;;;23.50;99.90;;;;;;5110783;28;20446;-70
2021/07/11 10:20:01;;;;;;;14.10;11.18;;;23.30;99.90;;;;;;5111105;28;20369;-69
2021/07/11 10:22:27;;;;;;;12.80;10.85;;;23.90;99.90;;;;;;5110048;28;20028;-70
2021/07/11 10:24:52;;;;;;;10.65;9.57;;;24.10;99.90;;;;;;5110484;28;20494;-70
2021/07/11 10:27:21;;;;;;;10.45;8.85;;;24.90;99.90;;;;;;5110202;28;20128;-70
2021/07/11 10:29:49;;;;;;;11.82;10.45;;;25.30;99.90;;;;;;5110570;28;20028;-70
2021/07/11 10:32:32;;;;;;;10.30;9.15;;;25.50;99.90;;;;;;5110835;28;20042;-70
2021/07/11 10:35:17;;;;;;;11.18;10.07;;;24.90;99.90;;;;;;5110443;28;20484;-70
2021/07/11 10:37:53;;;;;;;10.27;9.27;;;24.50;99.90;;;;;;5110138;28;20028;-69
2021/07/11 10:40:29;;;;;;;9.25;8.45;;;25.60;99.90;;;;;;5099653;28;20024;-69
2021/07/11 10:42:54;;;;;;;11.70;10.18;;;25.70;99.90;;;;;;5097035;28;20020;-70
2021/07/11 10:45:20;;;;;;;12.23;10.82;;;25.40;99.90;;;;;;5096626;28;20466;-70
2021/07/11 10:47:47;;;;;;;17.10;14.48;;;25.10;99.90;;;;;;5096285;28;20027;-70
2021/07/11 10:50:23;;;;;;;16.95;14.88;;;25.00;99.90;;;;;;5096822;28;20020;-70
2021/07/11 10:52:49;;;;;;;19.20;17.15;;;25.30;99.90;;;;;;5096813;28;20023;-70
2021/07/11 10:55:15;;;;;;;17.20;14.27;;;25.20;99.90;;;;;;5096761;28;20028;-69
2021/07/11 10:57:41;;;;;;;20.20;18.17;;;24.90;99.90;;;;;;5078059;28;20042;-69
2021/07/11 11:00:19;;;;;;;23.02;19.63;;;24.60;99.90;;;;;;5096405;28;20043;-69
2021/07/11 11:02:48;;;;;;;21.20;18.75;;;24.30;99.90;;;;;;5096650;28;20043;-70
2021/07/11 11:05:16;;;;;;;20.98;18.77;;;23.80;99.90;;;;;;5096587;28;20017;-70
2021/07/11 11:07:48;;;;;;;24.27;19.98;;;24.00;99.90;;;;;;5095460;28;20020;-70
2021/07/11 11:10:19;;;;;;;20.83;18.63;;;24.10;99.90;;;;;;5078459;28;20469;-70
2021/07/11 11:12:45;;;;;;;18.77;16.75;;;24.30;99.90;;;;;;5096459;28;20024;-70
2021/07/11 11:15:15;;;;;;;18.83;16.83;;;24.30;99.90;;;;;;5096348;28;20020;-70
2021/07/11 11:17:41;;;;;;;19.23;16.48;;;23.80;99.90;;;;;;5096065;28;20043;-69
2021/07/11 11:20:09;;;;;;;19.48;17.33;;;24.00;99.90;;;;;;5094517;28;20461;-70
2021/07/11 11:22:35;;;;;;;21.23;18.92;;;24.10;99.90;;;;;;5096275;28;20021;-70
2021/07/11 11:25:03;;;;;;;26.20;21.42;;;23.90;99.90;;;;;;5096245;28;20016;-69
2021/07/11 11:27:35;;;;;;;30.50;25.95;;;23.60;99.90;;;;;;5095315;28;20099;-70
2021/07/11 11:30:11;;;;;;;35.47;26.60;;;23.40;99.90;;;;;;5095828;28;20028;-70
2021/07/11 11:32:37;;;;;;;37.00;28.38;;;23.20;99.90;;;;;;5095769;28;20020;-70
2021/07/11 11:35:05;;;;;;;34.22;28.08;;;23.20;99.90;;;;;;5095924;28;20369;-70
2021/07/11 11:37:32;;;;;;;36.05;27.95;;;23.30;99.90;;;;;;5094406;28;20115;-69
2021/07/11 11:40:03;;;;;;;36.45;29.23;;;23.60;99.90;;;;;;5095488;28;20066;-69
2021/07/11 11:42:29;;;;;;;38.10;30.40;;;23.90;99.90;;;;;;5095117;28;20035;-70
2021/07/11 11:45:04;;;;;;;39.45;31.17;;;23.90;99.90;;;;;;5095396;28;20028;-70
2021/07/11 11:47:30;;;;;;;38.35;31.38;;;24.30;99.90;;;;;;5095666;28;20013;-70
2021/07/11 11:49:55;;;;;;;40.35;31.65;;;24.40;99.90;;;;;;5095644;28;20385;-70
2021/07/11 11:52:21;;;;;;;38.95;29.88;;;24.20;99.90;;;;;;5094582;28;20024;-69
2021/07/11 11:54:46;;;;;;;34.63;27.42;;;24.40;99.90;;;;;;5095378;28;20081;-69
2021/07/11 11:57:12;;;;;;;33.78;26.90;;;23.90;99.90;;;;;;5095262;28;20483;-70
2021/07/11 11:59:38;;;;;;;44.55;32.58;;;24.10;99.90;;;;;;5094342;28;20031;-70
2021/07/11 12:02:06;;;;;;;43.97;33.45;;;24.00;99.90;;;;;;5095436;28;20028;-70
2021/07/11 12:04:32;;;;;;;43.28;31.73;;;24.10;99.90;;;;;;5095419;28;20038;-70
2021/07/11 12:07:01;;;;;;;39.58;31.00;;;24.40;99.90;;;;;;5095314;28;20382;-70
2021/07/11 12:09:30;;;;;;;42.25;32.20;;;24.80;99.90;;;;;;5093408;28;20039;-69
2021/07/11 12:14:42;;;;;;;35.17;28.65;;;24.40;99.90;;;;;;5071573;28;20350;-68
2021/07/11 12:17:11;;;;;;;38.95;28.95;;;25.20;99.90;;;;;;5071109;28;20115;-69
2021/07/11 12:19:55;;;;;;;36.40;29.65;;;24.90;99.90;;;;;;5070960;28;20025;-69
2021/07/11 12:22:26;;;;;;;34.40;28.25;;;24.90;99.90;;;;;;5069715;28;20020;-69
2021/07/11 12:25:07;;;;;;;32.22;26.33;;;24.60;99.90;;;;;;5070887;28;20096;-69
2021/07/11 12:27:37;;;;;;;29.45;25.35;;;24.40;99.90;;;;;;5069735;28;20027;-69
2021/07/11 12:30:07;;;;;;;38.00;29.85;;;24.50;99.90;;;;;;5070526;28;20052;-69
2021/07/11 12:32:51;;;;;;;39.20;31.45;;;24.50;99.90;;;;;;5070969;28;20421;-69
2021/07/11 12:35:19;;;;;;;39.42;31.35;;;24.10;99.90;;;;;;5070693;28;20151;-69
2021/07/11 12:37:53;;;;;;;36.60;30.08;;;23.80;99.90;;;;;;5053284;28;20057;-69